sensor_id;sensor_type;location;lat;lon;timestamp;P1;durP1;ratioP1;P2;durP2;ratioP2
29730;SDS011;16639;51.488;0.152;2023-07-08T00:00:52;12.60;;;7.75;;
29730;SDS011;16639;51.488;0.152;2023-07-08T00:03:20;12.15;;;6.68;;
29730;SDS011;16639;51.488;0.152;2023-07-08T00:05:48;14.15;;;6.60;;
29730;SDS011;16639;51.488;0.152;2023-07-08T00:08:20;15.60;;;7.20;;
29730;SDS011;16639;51.488;0.152;2023-07-08T00:10:48;13.75;;;7.28;;
29730;SDS011;16639;51.488;0.152;2023-07-08T00:13:15;17.48;;;8.30;;
29730;SDS011;16639;51.488;0.152;2023-07-08T00:15:45;12.77;;;7.88;;
29730;SDS011;16639;51.488;0.152;2023-07-08T00:18:14;12.07;;;7.63;;
29730;SDS011;16639;51.488;0.152;2023-07-08T00:20:44;12.02;;;7.40;;
29730;SDS011;16639;51.488;0.152;2023-07-08T00:23:13;11.80;;;8.05;;
29730;SDS011;16639;51.488;0.152;2023-07-08T00:25:41;9.02;;;7.68;;
29730;SDS011;16639;51.488;0.152;2023-07-08T00:30:38;15.80;;;7.78;;
29730;SDS011;16639;51.488;0.152;2023-07-08T00:33:06;12.38;;;8.18;;
29730;SDS011;16639;51.488;0.152;2023-07-08T00:38:09;16.08;;;8.30;;
29730;SDS011;16639;51.488;0.152;2023-07-08T00:44:10;11.13;;;7.68;;
29730;SDS011;16639;51.488;0.152;2023-07-08T00:51:35;16.30;;;7.70;;
29730;SDS011;16639;51.488;0.152;2023-07-08T00:54:14;15.40;;;9.32;;
29730;SDS011;16639;51.488;0.152;2023-07-08T00:56:45;11.93;;;8.45;;
29730;SDS011;16639;51.488;0.152;2023-07-08T00:59:21;15.13;;;7.47;;
29730;SDS011;16639;51.488;0.152;2023-07-08T01:01:51;12.57;;;7.95;;
29730;SDS011;16639;51.488;0.152;2023-07-08T01:04:28;15.70;;;8.63;;
29730;SDS011;16639;51.488;0.152;2023-07-08T01:07:16;15.48;;;9.02;;
29730;SDS011;16639;51.488;0.152;2023-07-08T01:09:50;13.98;;;8.95;;
29730;SDS011;16639;51.488;0.152;2023-07-08T01:12:23;13.15;;;7.78;;
29730;SDS011;16639;51.488;0.152;2023-07-08T01:14:57;15.00;;;8.38;;
29730;SDS011;16639;51.488;0.152;2023-07-08T01:17:29;17.02;;;8.40;;
29730;SDS011;16639;51.488;0.152;2023-07-08T01:20:00;13.20;;;7.90;;
29730;SDS011;16639;51.488;0.152;2023-07-08T01:22:36;19.58;;;8.98;;
29730;SDS011;16639;51.488;0.152;2023-07-08T01:25:04;13.70;;;7.65;;
29730;SDS011;16639;51.488;0.152;2023-07-08T01:27:33;12.88;;;8.38;;
29730;SDS011;16639;51.488;0.152;2023-07-08T01:30:03;17.15;;;8.70;;
29730;SDS011;16639;51.488;0.152;2023-07-08T01:32:43;17.13;;;7.82;;
29730;SDS011;16639;51.488;0.152;2023-07-08T01:35:15;16.30;;;8.68;;
29730;SDS011;16639;51.488;0.152;2023-07-08T01:37:44;18.25;;;8.27;;
29730;SDS011;16639;51.488;0.152;2023-07-08T01:40:35;19.05;;;8.73;;
29730;SDS011;16639;51.488;0.152;2023-07-08T01:43:05;12.57;;;8.13;;
29730;SDS011;16639;51.488;0.152;2023-07-08T01:45:36;37.25;;;10.45;;
29730;SDS011;16639;51.488;0.152;2023-07-08T01:48:11;12.82;;;7.93;;
29730;SDS011;16639;51.488;0.152;2023-07-08T01:50:43;12.20;;;8.38;;
29730;SDS011;16639;51.488;0.152;2023-07-08T01:53:14;13.38;;;8.02;;
29730;SDS011;16639;51.488;0.152;2023-07-08T01:55:43;15.75;;;8.32;;
29730;SDS011;16639;51.488;0.152;2023-07-08T01:58:10;15.98;;;8.63;;
29730;SDS011;16639;51.488;0.152;2023-07-08T02:00:38;17.38;;;7.32;;
29730;SDS011;16639;51.488;0.152;2023-07-08T02:03:05;12.52;;;7.32;;
29730;SDS011;16639;51.488;0.152;2023-07-08T02:05:32;11.13;;;7.50;;
29730;SDS011;16639;51.488;0.152;2023-07-08T02:08:00;14.00;;;7.78;;
29730;SDS011;16639;51.488;0.152;2023-07-08T02:10:27;15.30;;;8.27;;
29730;SDS011;16639;51.488;0.152;2023-07-08T02:12:55;16.40;;;8.23;;
29730;SDS011;16639;51.488;0.152;2023-07-08T02:15:22;10.65;;;7.57;;
29730;SDS011;16639;51.488;0.152;2023-07-08T02:17:50;13.27;;;7.50;;
29730;SDS011;16639;51.488;0.152;2023-07-08T02:20:17;12.45;;;8.27;;
29730;SDS011;16639;51.488;0.152;2023-07-08T02:22:44;14.15;;;7.85;;
29730;SDS011;16639;51.488;0.152;2023-07-08T02:25:12;14.23;;;9.20;;
29730;SDS011;16639;51.488;0.152;2023-07-08T02:27:39;12.48;;;8.18;;
29730;SDS011;16639;51.488;0.152;2023-07-08T02:30:07;15.40;;;7.22;;
29730;SDS011;16639;51.488;0.152;2023-07-08T02:32:35;14.65;;;8.55;;
29730;SDS011;16639;51.488;0.152;2023-07-08T02:35:06;12.20;;;7.90;;
29730;SDS011;16639;51.488;0.152;2023-07-08T02:37:35;12.30;;;7.63;;
29730;SDS011;16639;51.488;0.152;2023-07-08T02:40:02;18.23;;;9.60;;
29730;SDS011;16639;51.488;0.152;2023-07-08T02:42:30;12.70;;;7.47;;
29730;SDS011;16639;51.488;0.152;2023-07-08T02:44:57;13.50;;;8.25;;
29730;SDS011;16639;51.488;0.152;2023-07-08T02:47:25;13.63;;;7.47;;
29730;SDS011;16639;51.488;0.152;2023-07-08T02:49:52;19.58;;;9.18;;
29730;SDS011;16639;51.488;0.152;2023-07-08T02:52:21;10.93;;;7.43;;
29730;SDS011;16639;51.488;0.152;2023-07-08T02:54:48;10.20;;;7.35;;
29730;SDS011;16639;51.488;0.152;2023-07-08T02:57:16;12.82;;;7.35;;
29730;SDS011;16639;51.488;0.152;2023-07-08T02:59:43;12.55;;;8.05;;
29730;SDS011;16639;51.488;0.152;2023-07-08T03:02:10;12.10;;;8.13;;
29730;SDS011;16639;51.488;0.152;2023-07-08T03:04:38;11.82;;;7.55;;
29730;SDS011;16639;51.488;0.152;2023-07-08T03:07:06;12.32;;;8.07;;
29730;SDS011;16639;51.488;0.152;2023-07-08T03:09:38;14.50;;;8.20;;
29730;SDS011;16639;51.488;0.152;2023-07-08T03:12:07;14.45;;;9.52;;
29730;SDS011;16639;51.488;0.152;2023-07-08T03:14:36;11.45;;;7.25;;
29730;SDS011;16639;51.488;0.152;2023-07-08T03:17:04;14.88;;;8.07;;
29730;SDS011;16639;51.488;0.152;2023-07-08T03:19:32;17.15;;;8.30;;
29730;SDS011;16639;51.488;0.152;2023-07-08T03:21:59;12.40;;;8.40;;
29730;SDS011;16639;51.488;0.152;2023-07-08T03:24:29;13.00;;;8.52;;
29730;SDS011;16639;51.488;0.152;2023-07-08T03:26:57;17.17;;;9.05;;
29730;SDS011;16639;51.488;0.152;2023-07-08T03:29:31;12.73;;;7.97;;
29730;SDS011;16639;51.488;0.152;2023-07-08T03:31:59;12.85;;;8.48;;
29730;SDS011;16639;51.488;0.152;2023-07-08T03:34:26;13.55;;;8.32;;
29730;SDS011;16639;51.488;0.152;2023-07-08T03:36:53;15.73;;;9.13;;
29730;SDS011;16639;51.488;0.152;2023-07-08T03:39:22;14.32;;;7.78;;
29730;SDS011;16639;51.488;0.152;2023-07-08T03:41:51;12.70;;;7.63;;
29730;SDS011;16639;51.488;0.152;2023-07-08T03:44:19;14.48;;;8.43;;
29730;SDS011;16639;51.488;0.152;2023-07-08T03:46:47;17.98;;;9.13;;
29730;SDS011;16639;51.488;0.152;2023-07-08T03:49:17;13.15;;;8.73;;
29730;SDS011;16639;51.488;0.152;2023-07-08T03:51:52;19.42;;;8.85;;
29730;SDS011;16639;51.488;0.152;2023-07-08T03:54:21;15.60;;;8.25;;
29730;SDS011;16639;51.488;0.152;2023-07-08T03:56:51;15.13;;;7.88;;
29730;SDS011;16639;51.488;0.152;2023-07-08T03:59:18;19.75;;;8.88;;
29730;SDS011;16639;51.488;0.152;2023-07-08T04:01:46;17.05;;;8.60;;
29730;SDS011;16639;51.488;0.152;2023-07-08T04:04:14;13.85;;;8.38;;
29730;SDS011;16639;51.488;0.152;2023-07-08T04:06:43;12.77;;;8.32;;
29730;SDS011;16639;51.488;0.152;2023-07-08T04:09:12;16.48;;;9.20;;
29730;SDS011;16639;51.488;0.152;2023-07-08T04:11:40;14.73;;;8.45;;
29730;SDS011;16639;51.488;0.152;2023-07-08T04:14:08;13.55;;;8.23;;
29730;SDS011;16639;51.488;0.152;2023-07-08T04:19:25;15.18;;;8.13;;
29730;SDS011;16639;51.488;0.152;2023-07-08T04:21:54;18.48;;;9.15;;
29730;SDS011;16639;51.488;0.152;2023-07-08T04:24:21;12.90;;;7.45;;
29730;SDS011;16639;51.488;0.152;2023-07-08T04:26:49;13.70;;;8.50;;
29730;SDS011;16639;51.488;0.152;2023-07-08T04:29:18;15.68;;;8.65;;
29730;SDS011;16639;51.488;0.152;2023-07-08T04:31:47;17.20;;;9.15;;
29730;SDS011;16639;51.488;0.152;2023-07-08T04:34:15;16.05;;;8.52;;
29730;SDS011;16639;51.488;0.152;2023-07-08T04:36:43;19.90;;;7.68;;
29730;SDS011;16639;51.488;0.152;2023-07-08T04:39:11;21.20;;;8.57;;
29730;SDS011;16639;51.488;0.152;2023-07-08T04:41:40;13.48;;;8.70;;
29730;SDS011;16639;51.488;0.152;2023-07-08T04:44:08;15.23;;;8.45;;
29730;SDS011;16639;51.488;0.152;2023-07-08T04:49:12;14.90;;;9.25;;
29730;SDS011;16639;51.488;0.152;2023-07-08T04:51:40;15.32;;;10.20;;
29730;SDS011;16639;51.488;0.152;2023-07-08T04:54:08;15.40;;;8.80;;
29730;SDS011;16639;51.488;0.152;2023-07-08T04:56:37;14.90;;;8.77;;
29730;SDS011;16639;51.488;0.152;2023-07-08T04:59:08;10.55;;;7.10;;
29730;SDS011;16639;51.488;0.152;2023-07-08T05:01:37;16.35;;;9.25;;
29730;SDS011;16639;51.488;0.152;2023-07-08T05:04:04;14.18;;;8.40;;
29730;SDS011;16639;51.488;0.152;2023-07-08T05:06:33;12.82;;;8.30;;
29730;SDS011;16639;51.488;0.152;2023-07-08T05:09:01;12.65;;;8.45;;
29730;SDS011;16639;51.488;0.152;2023-07-08T05:11:29;12.68;;;8.35;;
29730;SDS011;16639;51.488;0.152;2023-07-08T05:13:57;15.77;;;8.23;;
29730;SDS011;16639;51.488;0.152;2023-07-08T05:16:25;15.90;;;8.38;;
29730;SDS011;16639;51.488;0.152;2023-07-08T05:18:52;18.63;;;8.68;;
29730;SDS011;16639;51.488;0.152;2023-07-08T05:21:20;17.00;;;9.43;;
29730;SDS011;16639;51.488;0.152;2023-07-08T05:23:48;12.00;;;8.15;;
29730;SDS011;16639;51.488;0.152;2023-07-08T05:26:16;12.57;;;8.15;;
29730;SDS011;16639;51.488;0.152;2023-07-08T05:28:43;14.90;;;8.50;;
29730;SDS011;16639;51.488;0.152;2023-07-08T05:31:11;13.27;;;7.60;;
29730;SDS011;16639;51.488;0.152;2023-07-08T05:33:39;12.38;;;7.95;;
29730;SDS011;16639;51.488;0.152;2023-07-08T05:36:06;14.68;;;9.10;;
29730;SDS011;16639;51.488;0.152;2023-07-08T05:38:34;19.20;;;7.97;;
29730;SDS011;16639;51.488;0.152;2023-07-08T05:41:01;12.45;;;8.77;;
29730;SDS011;16639;51.488;0.152;2023-07-08T05:43:29;15.30;;;7.72;;
29730;SDS011;16639;51.488;0.152;2023-07-08T05:45:57;17.15;;;8.60;;
29730;SDS011;16639;51.488;0.152;2023-07-08T05:48:38;20.15;;;10.32;;
29730;SDS011;16639;51.488;0.152;2023-07-08T05:51:06;16.75;;;8.95;;
29730;SDS011;16639;51.488;0.152;2023-07-08T05:53:34;19.33;;;8.75;;
29730;SDS011;16639;51.488;0.152;2023-07-08T05:56:02;20.95;;;8.77;;
29730;SDS011;16639;51.488;0.152;2023-07-08T05:58:30;14.88;;;8.77;;
29730;SDS011;16639;51.488;0.152;2023-07-08T06:00:57;11.35;;;8.20;;
29730;SDS011;16639;51.488;0.152;2023-07-08T06:03:26;15.38;;;8.20;;
29730;SDS011;16639;51.488;0.152;2023-07-08T06:05:53;12.55;;;7.82;;
29730;SDS011;16639;51.488;0.152;2023-07-08T06:08:21;14.02;;;8.55;;
29730;SDS011;16639;51.488;0.152;2023-07-08T06:10:49;16.33;;;8.00;;
29730;SDS011;16639;51.488;0.152;2023-07-08T06:13:17;17.95;;;8.05;;
29730;SDS011;16639;51.488;0.152;2023-07-08T06:15:44;16.35;;;8.50;;
29730;SDS011;16639;51.488;0.152;2023-07-08T06:18:12;13.68;;;7.60;;
29730;SDS011;16639;51.488;0.152;2023-07-08T06:20:39;20.20;;;7.65;;
29730;SDS011;16639;51.488;0.152;2023-07-08T06:23:07;13.18;;;6.72;;
29730;SDS011;16639;51.488;0.152;2023-07-08T06:25:34;9.15;;;6.03;;
29730;SDS011;16639;51.488;0.152;2023-07-08T06:28:01;10.38;;;5.80;;
29730;SDS011;16639;51.488;0.152;2023-07-08T06:30:29;14.18;;;6.68;;
29730;SDS011;16639;51.488;0.152;2023-07-08T06:32:56;9.50;;;5.68;;
29730;SDS011;16639;51.488;0.152;2023-07-08T06:35:27;13.07;;;6.05;;
29730;SDS011;16639;51.488;0.152;2023-07-08T06:37:54;14.23;;;6.28;;
29730;SDS011;16639;51.488;0.152;2023-07-08T06:40:22;10.95;;;6.28;;
29730;SDS011;16639;51.488;0.152;2023-07-08T06:42:49;10.55;;;6.03;;
29730;SDS011;16639;51.488;0.152;2023-07-08T06:45:17;10.98;;;5.22;;
29730;SDS011;16639;51.488;0.152;2023-07-08T06:47:44;12.15;;;5.57;;
29730;SDS011;16639;51.488;0.152;2023-07-08T06:50:13;12.77;;;5.60;;
29730;SDS011;16639;51.488;0.152;2023-07-08T06:52:40;7.80;;;5.57;;
29730;SDS011;16639;51.488;0.152;2023-07-08T06:55:09;10.70;;;6.00;;
29730;SDS011;16639;51.488;0.152;2023-07-08T06:57:37;18.77;;;6.00;;
29730;SDS011;16639;51.488;0.152;2023-07-08T07:00:08;10.27;;;5.53;;
29730;SDS011;16639;51.488;0.152;2023-07-08T07:02:37;8.77;;;5.00;;
29730;SDS011;16639;51.488;0.152;2023-07-08T07:05:05;10.75;;;5.20;;
29730;SDS011;16639;51.488;0.152;2023-07-08T07:07:33;13.15;;;6.38;;
29730;SDS011;16639;51.488;0.152;2023-07-08T07:10:01;14.25;;;6.53;;
29730;SDS011;16639;51.488;0.152;2023-07-08T07:12:30;13.88;;;5.88;;
29730;SDS011;16639;51.488;0.152;2023-07-08T07:14:57;13.48;;;5.90;;
29730;SDS011;16639;51.488;0.152;2023-07-08T07:17:25;13.45;;;5.90;;
29730;SDS011;16639;51.488;0.152;2023-07-08T07:19:53;7.72;;;5.15;;
29730;SDS011;16639;51.488;0.152;2023-07-08T07:22:21;14.02;;;6.72;;
29730;SDS011;16639;51.488;0.152;2023-07-08T07:24:49;11.25;;;6.22;;
29730;SDS011;16639;51.488;0.152;2023-07-08T07:27:17;11.80;;;6.97;;
29730;SDS011;16639;51.488;0.152;2023-07-08T07:29:45;11.85;;;5.72;;
29730;SDS011;16639;51.488;0.152;2023-07-08T07:32:15;15.07;;;6.72;;
29730;SDS011;16639;51.488;0.152;2023-07-08T07:34:46;11.10;;;5.65;;
29730;SDS011;16639;51.488;0.152;2023-07-08T07:37:15;10.63;;;5.15;;
29730;SDS011;16639;51.488;0.152;2023-07-08T07:39:50;13.43;;;5.65;;
29730;SDS011;16639;51.488;0.152;2023-07-08T07:42:18;16.45;;;6.22;;
29730;SDS011;16639;51.488;0.152;2023-07-08T07:44:48;16.00;;;5.57;;
29730;SDS011;16639;51.488;0.152;2023-07-08T07:47:19;11.32;;;5.82;;
29730;SDS011;16639;51.488;0.152;2023-07-08T07:49:49;12.02;;;5.47;;
29730;SDS011;16639;51.488;0.152;2023-07-08T07:52:17;8.27;;;5.53;;
29730;SDS011;16639;51.488;0.152;2023-07-08T07:54:54;10.55;;;5.45;;
29730;SDS011;16639;51.488;0.152;2023-07-08T07:57:22;7.43;;;5.00;;
29730;SDS011;16639;51.488;0.152;2023-07-08T07:59:52;11.93;;;4.72;;
29730;SDS011;16639;51.488;0.152;2023-07-08T08:02:22;8.15;;;5.35;;
29730;SDS011;16639;51.488;0.152;2023-07-08T08:04:50;11.43;;;5.78;;
29730;SDS011;16639;51.488;0.152;2023-07-08T08:07:17;9.57;;;5.38;;
29730;SDS011;16639;51.488;0.152;2023-07-08T08:09:44;10.15;;;5.55;;
29730;SDS011;16639;51.488;0.152;2023-07-08T08:12:12;10.40;;;5.53;;
29730;SDS011;16639;51.488;0.152;2023-07-08T08:14:39;10.40;;;4.65;;
29730;SDS011;16639;51.488;0.152;2023-07-08T08:17:07;9.98;;;5.85;;
29730;SDS011;16639;51.488;0.152;2023-07-08T08:19:35;14.52;;;6.65;;
29730;SDS011;16639;51.488;0.152;2023-07-08T08:22:03;15.00;;;6.03;;
29730;SDS011;16639;51.488;0.152;2023-07-08T08:24:30;8.35;;;4.97;;
29730;SDS011;16639;51.488;0.152;2023-07-08T08:26:58;12.88;;;5.38;;
29730;SDS011;16639;51.488;0.152;2023-07-08T08:29:25;10.40;;;5.70;;
29730;SDS011;16639;51.488;0.152;2023-07-08T08:31:53;15.00;;;5.35;;
29730;SDS011;16639;51.488;0.152;2023-07-08T08:34:23;12.68;;;5.70;;
29730;SDS011;16639;51.488;0.152;2023-07-08T08:36:50;10.50;;;5.05;;
29730;SDS011;16639;51.488;0.152;2023-07-08T08:39:21;9.45;;;5.22;;
29730;SDS011;16639;51.488;0.152;2023-07-08T08:41:48;12.57;;;5.15;;
29730;SDS011;16639;51.488;0.152;2023-07-08T08:44:33;12.90;;;5.38;;
29730;SDS011;16639;51.488;0.152;2023-07-08T08:53:01;10.15;;;5.35;;
29730;SDS011;16639;51.488;0.152;2023-07-08T08:55:31;10.75;;;4.68;;
29730;SDS011;16639;51.488;0.152;2023-07-08T09:00:54;10.20;;;5.07;;
29730;SDS011;16639;51.488;0.152;2023-07-08T09:06:23;9.10;;;5.40;;
29730;SDS011;16639;51.488;0.152;2023-07-08T09:08:52;10.00;;;5.88;;
29730;SDS011;16639;51.488;0.152;2023-07-08T09:11:34;10.20;;;5.00;;
29730;SDS011;16639;51.488;0.152;2023-07-08T09:14:03;10.00;;;5.78;;
29730;SDS011;16639;51.488;0.152;2023-07-08T09:16:45;9.82;;;5.70;;
29730;SDS011;16639;51.488;0.152;2023-07-08T09:22:03;8.48;;;5.28;;
29730;SDS011;16639;51.488;0.152;2023-07-08T09:27:09;9.30;;;5.68;;
29730;SDS011;16639;51.488;0.152;2023-07-08T09:29:37;8.60;;;6.45;;
29730;SDS011;16639;51.488;0.152;2023-07-08T09:32:18;9.18;;;5.95;;
29730;SDS011;16639;51.488;0.152;2023-07-08T09:34:51;13.50;;;5.93;;
29730;SDS011;16639;51.488;0.152;2023-07-08T09:37:26;14.10;;;6.78;;
29730;SDS011;16639;51.488;0.152;2023-07-08T09:39:57;12.02;;;6.05;;
29730;SDS011;16639;51.488;0.152;2023-07-08T09:42:32;12.98;;;6.72;;
29730;SDS011;16639;51.488;0.152;2023-07-08T09:45:02;11.55;;;6.40;;
29730;SDS011;16639;51.488;0.152;2023-07-08T09:47:38;11.45;;;7.13;;
29730;SDS011;16639;51.488;0.152;2023-07-08T09:50:18;10.60;;;6.22;;
29730;SDS011;16639;51.488;0.152;2023-07-08T09:52:48;13.40;;;6.00;;
29730;SDS011;16639;51.488;0.152;2023-07-08T09:55:17;13.88;;;6.32;;
29730;SDS011;16639;51.488;0.152;2023-07-08T09:57:45;13.77;;;6.80;;
29730;SDS011;16639;51.488;0.152;2023-07-08T10:00:16;10.45;;;6.35;;
29730;SDS011;16639;51.488;0.152;2023-07-08T10:02:49;8.73;;;5.00;;
29730;SDS011;16639;51.488;0.152;2023-07-08T10:05:32;8.18;;;5.10;;
29730;SDS011;16639;51.488;0.152;2023-07-08T10:08:02;8.48;;;5.10;;
29730;SDS011;16639;51.488;0.152;2023-07-08T10:11:33;10.48;;;5.85;;
29730;SDS011;16639;51.488;0.152;2023-07-08T10:14:27;12.32;;;6.40;;
29730;SDS011;16639;51.488;0.152;2023-07-08T10:17:00;9.45;;;5.65;;
29730;SDS011;16639;51.488;0.152;2023-07-08T10:19:28;12.40;;;5.65;;
29730;SDS011;16639;51.488;0.152;2023-07-08T10:27:39;9.13;;;5.65;;
29730;SDS011;16639;51.488;0.152;2023-07-08T10:30:19;9.45;;;4.63;;
29730;SDS011;16639;51.488;0.152;2023-07-08T10:36:18;6.93;;;4.35;;
29730;SDS011;16639;51.488;0.152;2023-07-08T10:44:35;13.90;;;5.72;;
29730;SDS011;16639;51.488;0.152;2023-07-08T11:01:20;7.95;;;4.75;;
29730;SDS011;16639;51.488;0.152;2023-07-08T11:06:56;8.93;;;4.57;;
29730;SDS011;16639;51.488;0.152;2023-07-08T11:09:33;12.65;;;6.38;;
29730;SDS011;16639;51.488;0.152;2023-07-08T11:12:20;6.95;;;4.95;;
29730;SDS011;16639;51.488;0.152;2023-07-08T11:15:18;11.93;;;5.50;;
29730;SDS011;16639;51.488;0.152;2023-07-08T11:18:04;11.15;;;6.35;;
29730;SDS011;16639;51.488;0.152;2023-07-08T11:26:14;9.05;;;5.38;;
29730;SDS011;16639;51.488;0.152;2023-07-08T11:28:47;11.43;;;4.80;;
29730;SDS011;16639;51.488;0.152;2023-07-08T11:31:17;11.88;;;5.93;;
29730;SDS011;16639;51.488;0.152;2023-07-08T11:33:45;10.88;;;4.93;;
29730;SDS011;16639;51.488;0.152;2023-07-08T11:36:14;11.23;;;4.65;;
29730;SDS011;16639;51.488;0.152;2023-07-08T11:38:49;11.60;;;4.57;;
29730;SDS011;16639;51.488;0.152;2023-07-08T11:41:22;15.77;;;5.32;;
29730;SDS011;16639;51.488;0.152;2023-07-08T11:43:55;10.38;;;5.38;;
29730;SDS011;16639;51.488;0.152;2023-07-08T11:46:28;16.00;;;5.70;;
29730;SDS011;16639;51.488;0.152;2023-07-08T11:49:04;13.55;;;5.55;;
29730;SDS011;16639;51.488;0.152;2023-07-08T11:51:38;8.00;;;5.10;;
29730;SDS011;16639;51.488;0.152;2023-07-08T11:57:03;11.93;;;4.57;;
29730;SDS011;16639;51.488;0.152;2023-07-08T11:59:33;11.05;;;4.95;;
29730;SDS011;16639;51.488;0.152;2023-07-08T12:02:11;8.10;;;4.22;;
29730;SDS011;16639;51.488;0.152;2023-07-08T12:07:30;8.75;;;4.47;;
29730;SDS011;16639;51.488;0.152;2023-07-08T12:12:40;9.13;;;4.05;;
29730;SDS011;16639;51.488;0.152;2023-07-08T12:17:56;10.63;;;4.53;;
29730;SDS011;16639;51.488;0.152;2023-07-08T12:20:34;8.80;;;3.92;;
29730;SDS011;16639;51.488;0.152;2023-07-08T12:23:23;8.50;;;4.22;;
29730;SDS011;16639;51.488;0.152;2023-07-08T12:25:53;12.45;;;4.85;;
29730;SDS011;16639;51.488;0.152;2023-07-08T12:28:22;9.63;;;3.92;;
29730;SDS011;16639;51.488;0.152;2023-07-08T12:30:50;9.77;;;5.00;;
29730;SDS011;16639;51.488;0.152;2023-07-08T12:33:22;10.35;;;5.13;;
29730;SDS011;16639;51.488;0.152;2023-07-08T12:35:58;12.30;;;6.13;;
29730;SDS011;16639;51.488;0.152;2023-07-08T12:38:28;9.48;;;4.57;;
29730;SDS011;16639;51.488;0.152;2023-07-08T12:41:28;9.38;;;4.90;;
29730;SDS011;16639;51.488;0.152;2023-07-08T12:43:59;10.00;;;4.47;;
29730;SDS011;16639;51.488;0.152;2023-07-08T12:46:27;6.93;;;4.50;;
29730;SDS011;16639;51.488;0.152;2023-07-08T12:48:56;10.00;;;4.47;;
29730;SDS011;16639;51.488;0.152;2023-07-08T12:51:26;9.68;;;4.38;;
29730;SDS011;16639;51.488;0.152;2023-07-08T12:53:53;9.80;;;5.20;;
29730;SDS011;16639;51.488;0.152;2023-07-08T12:56:22;9.25;;;4.50;;
29730;SDS011;16639;51.488;0.152;2023-07-08T12:58:51;8.80;;;4.88;;
29730;SDS011;16639;51.488;0.152;2023-07-08T13:01:25;8.10;;;4.78;;
29730;SDS011;16639;51.488;0.152;2023-07-08T13:03:56;6.35;;;4.07;;
29730;SDS011;16639;51.488;0.152;2023-07-08T13:06:29;5.82;;;4.65;;
29730;SDS011;16639;51.488;0.152;2023-07-08T13:08:59;17.58;;;5.03;;
29730;SDS011;16639;51.488;0.152;2023-07-08T13:11:45;6.90;;;4.15;;
29730;SDS011;16639;51.488;0.152;2023-07-08T13:14:14;12.15;;;5.45;;
29730;SDS011;16639;51.488;0.152;2023-07-08T13:16:42;15.85;;;6.88;;
29730;SDS011;16639;51.488;0.152;2023-07-08T13:19:11;15.35;;;6.40;;
29730;SDS011;16639;51.488;0.152;2023-07-08T13:21:39;13.07;;;6.75;;
29730;SDS011;16639;51.488;0.152;2023-07-08T13:24:08;11.65;;;5.50;;
29730;SDS011;16639;51.488;0.152;2023-07-08T13:26:38;12.30;;;6.43;;
29730;SDS011;16639;51.488;0.152;2023-07-08T13:29:15;12.52;;;5.90;;
29730;SDS011;16639;51.488;0.152;2023-07-08T13:31:47;8.68;;;5.53;;
29730;SDS011;16639;51.488;0.152;2023-07-08T13:34:20;11.43;;;6.07;;
29730;SDS011;16639;51.488;0.152;2023-07-08T13:36:51;15.05;;;7.38;;
29730;SDS011;16639;51.488;0.152;2023-07-08T13:40:07;11.90;;;6.70;;
29730;SDS011;16639;51.488;0.152;2023-07-08T13:42:12;10.68;;;5.60;;
29730;SDS011;16639;51.488;0.152;2023-07-08T13:44:44;9.00;;;5.40;;
29730;SDS011;16639;51.488;0.152;2023-07-08T13:47:23;8.20;;;5.50;;
29730;SDS011;16639;51.488;0.152;2023-07-08T13:49:56;10.73;;;5.70;;
29730;SDS011;16639;51.488;0.152;2023-07-08T13:52:34;13.23;;;5.95;;
29730;SDS011;16639;51.488;0.152;2023-07-08T13:55:06;9.90;;;5.72;;
29730;SDS011;16639;51.488;0.152;2023-07-08T13:57:45;9.90;;;5.88;;
29730;SDS011;16639;51.488;0.152;2023-07-08T14:00:12;10.93;;;6.10;;
29730;SDS011;16639;51.488;0.152;2023-07-08T14:02:43;7.70;;;4.78;;
29730;SDS011;16639;51.488;0.152;2023-07-08T14:05:12;11.60;;;5.03;;
29730;SDS011;16639;51.488;0.152;2023-07-08T14:07:47;9.40;;;5.30;;
29730;SDS011;16639;51.488;0.152;2023-07-08T14:10:15;10.93;;;5.05;;
29730;SDS011;16639;51.488;0.152;2023-07-08T14:12:43;8.52;;;4.93;;
29730;SDS011;16639;51.488;0.152;2023-07-08T14:15:10;11.80;;;5.82;;
29730;SDS011;16639;51.488;0.152;2023-07-08T14:17:38;9.88;;;5.13;;
29730;SDS011;16639;51.488;0.152;2023-07-08T14:20:13;7.55;;;4.38;;
29730;SDS011;16639;51.488;0.152;2023-07-08T14:22:46;8.13;;;4.65;;
29730;SDS011;16639;51.488;0.152;2023-07-08T14:25:14;9.18;;;5.30;;
29730;SDS011;16639;51.488;0.152;2023-07-08T14:27:43;7.10;;;4.32;;
29730;SDS011;16639;51.488;0.152;2023-07-08T14:30:11;10.55;;;6.30;;
29730;SDS011;16639;51.488;0.152;2023-07-08T14:32:38;14.32;;;5.88;;
29730;SDS011;16639;51.488;0.152;2023-07-08T14:37:50;9.32;;;4.75;;
29730;SDS011;16639;51.488;0.152;2023-07-08T14:40:32;8.10;;;4.78;;
29730;SDS011;16639;51.488;0.152;2023-07-08T14:43:02;8.63;;;4.55;;
29730;SDS011;16639;51.488;0.152;2023-07-08T14:45:40;11.38;;;5.38;;
29730;SDS011;16639;51.488;0.152;2023-07-08T14:48:12;10.48;;;5.90;;
29730;SDS011;16639;51.488;0.152;2023-07-08T14:50:40;11.20;;;5.78;;
29730;SDS011;16639;51.488;0.152;2023-07-08T14:53:08;12.43;;;4.70;;
29730;SDS011;16639;51.488;0.152;2023-07-08T14:55:35;9.00;;;5.45;;
29730;SDS011;16639;51.488;0.152;2023-07-08T14:58:03;12.90;;;5.65;;
29730;SDS011;16639;51.488;0.152;2023-07-08T15:00:31;11.07;;;5.55;;
29730;SDS011;16639;51.488;0.152;2023-07-08T15:02:59;12.25;;;5.32;;
29730;SDS011;16639;51.488;0.152;2023-07-08T15:05:27;15.60;;;6.30;;
29730;SDS011;16639;51.488;0.152;2023-07-08T15:07:57;42.60;;;8.10;;
29730;SDS011;16639;51.488;0.152;2023-07-08T15:10:26;26.02;;;6.53;;
29730;SDS011;16639;51.488;0.152;2023-07-08T15:12:55;15.27;;;6.03;;
29730;SDS011;16639;51.488;0.152;2023-07-08T15:17:55;11.93;;;5.50;;
29730;SDS011;16639;51.488;0.152;2023-07-08T15:20:24;20.23;;;6.88;;
29730;SDS011;16639;51.488;0.152;2023-07-08T15:22:51;11.85;;;5.93;;
29730;SDS011;16639;51.488;0.152;2023-07-08T15:25:19;96.55;;;14.55;;
29730;SDS011;16639;51.488;0.152;2023-07-08T15:27:52;24.80;;;6.57;;
29730;SDS011;16639;51.488;0.152;2023-07-08T15:30:22;17.58;;;5.45;;
29730;SDS011;16639;51.488;0.152;2023-07-08T15:32:51;11.43;;;5.50;;
29730;SDS011;16639;51.488;0.152;2023-07-08T15:35:20;7.93;;;5.00;;
29730;SDS011;16639;51.488;0.152;2023-07-08T15:37:56;9.85;;;5.40;;
29730;SDS011;16639;51.488;0.152;2023-07-08T15:40:26;10.27;;;5.60;;
29730;SDS011;16639;51.488;0.152;2023-07-08T15:42:56;8.50;;;4.95;;
29730;SDS011;16639;51.488;0.152;2023-07-08T15:48:04;19.02;;;5.95;;
29730;SDS011;16639;51.488;0.152;2023-07-08T15:50:32;16.33;;;5.63;;
29730;SDS011;16639;51.488;0.152;2023-07-08T15:52:59;10.80;;;5.53;;
29730;SDS011;16639;51.488;0.152;2023-07-08T15:55:28;13.15;;;6.70;;
29730;SDS011;16639;51.488;0.152;2023-07-08T15:58:01;11.68;;;6.05;;
29730;SDS011;16639;51.488;0.152;2023-07-08T16:00:32;33.67;;;22.52;;
29730;SDS011;16639;51.488;0.152;2023-07-08T16:03:06;36.20;;;22.92;;
29730;SDS011;16639;51.488;0.152;2023-07-08T16:05:39;12.35;;;7.30;;
29730;SDS011;16639;51.488;0.152;2023-07-08T16:08:08;8.88;;;5.20;;
29730;SDS011;16639;51.488;0.152;2023-07-08T16:10:36;8.50;;;5.28;;
29730;SDS011;16639;51.488;0.152;2023-07-08T16:13:05;10.20;;;4.97;;
29730;SDS011;16639;51.488;0.152;2023-07-08T16:15:34;8.82;;;4.95;;
29730;SDS011;16639;51.488;0.152;2023-07-08T16:18:08;8.07;;;5.13;;
29730;SDS011;16639;51.488;0.152;2023-07-08T16:20:38;10.30;;;4.85;;
29730;SDS011;16639;51.488;0.152;2023-07-08T16:23:06;10.85;;;5.32;;
29730;SDS011;16639;51.488;0.152;2023-07-08T16:25:35;9.85;;;5.38;;
29730;SDS011;16639;51.488;0.152;2023-07-08T16:28:06;8.82;;;4.88;;
29730;SDS011;16639;51.488;0.152;2023-07-08T16:30:42;12.32;;;5.45;;